Portada
METAR-TAF:

METAR-TAF

Aeropuertos :

Kermanshah, Irán

latitud: 34-16N, longitud: 047-07E, altitud: 1320 m

Observación

El informe se hizo hace 19 minutos, a las 10:00 UTC
Viento 4 kt del sureste
Temperatura 12°C
Humedad 50%
Presión 1025 hPa
Visibilidad: 7000 m
Escasas nubes a una altura de 2500 ft
Escasas nubes a una altura de 3000 ft

METAR: OICC 191000Z 13004KT 7000 FEW025 FEW030 12/02 Q1025 A3027 NOSIG

Hora: 13:49 (10:19 UTC)


TAF: falta

Observaciones y pronósticos meteorológicos de más de 4000 aeropuertos (mensajes METAR y TAF).

Los puntos amarillos y rojos representan las estaciones disponibles.

Ponga el ratón en el punto deseado para ver el nombre de la estación.

Haga clic para ver las observaciones y los pronósticos meteorológicos.

Para cambiar el mapa : haga clic en los botones verdes con una cruz de color negro para hacer un zoom, en el botón verde con un guión para alejar o en las flechas verdes para mapas adyacentes.


METAR-TAF: